Portada
METAR-TAF:

METAR-TAF

Aeropuertos :

Aeropuerto de Palermo-Punta Raisi

Palermo, Italia

latitud: 38-11N, longitud: 013-06E, altitud: 21 m

Observación

El informe se hizo hace 34 minutos, a las 00:50 UTC
Viento 16 kt del oeste
Temperatura 14°C
Humedad 63%
Presión 1011 hPa
Visibilidad 10 km o más
Nubes dispersas a una altura de 4500 ft

METAR: LICJ 250050Z 28016KT 9999 SCT045 14/07 Q1011

Hora: 02:24 (01:24 UTC)

Pronóstico

El informe se hizo hace 2 horas y 24 minutos, a las 23:00 UTC
Pronóstico válido del 25 a las 00 UTC al 25 a las 24 UTC
Viento 15 kt del suroeste
Visibilidad 10 km o más
Nubes dispersas a una altura de 2500 ft
Temporalmente
del 25 a las 21 UTC al 25 a las 24 UTC
chaparrones de lluvia

TAF: LICJ 242300Z 2500/2524 23015KT 9999 SCT025 TEMPO 2521/2524 SHRA

Observaciones y pronósticos meteorológicos de más de 4000 aeropuertos (mensajes METAR y TAF).

Los puntos amarillos y rojos representan las estaciones disponibles.

Ponga el ratón en el punto deseado para ver el nombre de la estación.

Haga clic para ver las observaciones y los pronósticos meteorológicos.

Para cambiar el mapa : haga clic en los botones verdes con una cruz de color negro para hacer un zoom, en el botón verde con un guión para alejar o en las flechas verdes para mapas adyacentes.


METAR-TAF: